Time;durP1;ratioP1;P1;durP2;ratioP2;P2;SDS_P1;SDS_P2;PMS_P1;PMS_P2;Temp;Humidity;BMP_temperature;BMP_pressure;BME280_temperature;BME280_humidity;BME280_pressure;Samples;Min_cycle;Max_cycle;Signal;HPM_P1;HPM_P2
2021/04/16 00:01:51;;;;;;;2.03;1.88;;;;;;;;;;5114190;28;20207;-62
2021/04/16 00:04:18;;;;;;;2.70;1.80;;;;;;;;;;5113759;28;20199;-62
2021/04/16 00:06:45;;;;;;;4.63;2.05;;;;;;;;;;5114139;28;20709;-61
2021/04/16 00:09:12;;;;;;;2.28;1.75;;;;;;;;;;5133917;28;20219;-62
2021/04/16 00:11:39;;;;;;;1.70;1.30;;;;;;;;;;5122374;28;20206;-62
2021/04/16 00:14:06;;;;;;;3.05;1.90;;;;;;;;;;5113725;28;20207;-61
2021/04/16 00:16:32;;;;;;;2.35;1.92;;;;;;;;;;5113985;28;20219;-61
2021/04/16 00:18:59;;;;;;;3.20;1.73;;;;;;;;;;5114101;28;20200;-60
2021/04/16 00:21:27;;;;;;;2.33;1.77;;;;;;;;;;5113812;28;20207;-61
2021/04/16 00:23:55;;;;;;;3.22;1.55;;;;;;;;;;5116370;28;20206;-61
2021/04/16 00:26:22;;;;;;;1.80;1.70;;;;;;;;;;5117669;28;20219;-61
2021/04/16 00:28:49;;;;;;;3.60;1.70;;;;;;;;;;5117967;28;20215;-62
2021/04/16 00:31:17;;;;;;;2.88;1.70;;;;;;;;;;5118315;28;20239;-61
2021/04/16 00:33:44;;;;;;;1.90;1.70;;;;;;;;;;5117579;28;20196;-61
2021/04/16 00:36:11;;;;;;;3.38;2.13;;;;;;;;;;5117829;28;20222;-61
2021/04/16 00:38:38;;;;;;;3.88;1.88;;;;;;;;;;5117345;28;20663;-61
2021/04/16 00:41:07;;;;;;;2.33;2.10;;;;;;;;;;5118499;28;20253;-62
2021/04/16 00:43:35;;;;;;;1.50;1.30;;;;;;;;;;5118151;28;20199;-61
2021/04/16 00:46:09;;;;;;;2.65;1.70;;;;;;;;;;5117477;28;20248;-62
2021/04/16 00:48:37;;;;;;;1.60;1.48;;;;;;;;;;5117467;28;20199;-62
2021/04/16 00:51:06;;;;;;;2.13;1.65;;;;;;;;;;5117573;28;20199;-62
2021/04/16 00:53:34;;;;;;;2.15;1.58;;;;;;;;;;5117766;28;20631;-62
2021/04/16 00:56:00;;;;;;;2.03;1.80;;;;;;;;;;5117179;28;20702;-62
2021/04/16 00:58:29;;;;;;;2.58;1.70;;;;;;;;;;5117534;28;20199;-62
2021/04/16 01:00:57;;;;;;;1.90;1.52;;;;;;;;;;5117374;28;20200;-62
2021/04/16 01:03:24;;;;;;;2.60;1.80;;;;;;;;;;5117504;28;20256;-62
2021/04/16 01:05:53;;;;;;;2.22;1.48;;;;;;;;;;5116963;28;20223;-62
2021/04/16 01:08:20;;;;;;;2.00;1.60;;;;;;;;;;5117474;28;20613;-62
2021/04/16 01:10:49;;;;;;;1.95;1.70;;;;;;;;;;5117480;28;20263;-61
2021/04/16 01:13:16;;;;;;;2.20;1.80;;;;;;;;;;5116962;28;20199;-61
2021/04/16 01:15:52;;;;;;;3.25;1.83;;;;;;;;;;5117158;28;20231;-60
2021/04/16 01:18:19;;;;;;;3.20;1.80;;;;;;;;;;5117260;28;20180;-61
2021/04/16 01:20:49;;;;;;;2.05;1.70;;;;;;;;;;5117278;28;20204;-61
2021/04/16 01:23:19;;;;;;;2.40;2.00;;;;;;;;;;5116743;28;20199;-62
2021/04/16 01:25:47;;;;;;;3.03;2.03;;;;;;;;;;5116683;28;20234;-63
2021/04/16 01:28:14;;;;;;;2.70;1.83;;;;;;;;;;5116965;28;20260;-61
2021/04/16 01:30:53;;;;;;;2.55;1.70;;;;;;;;;;5116668;28;20625;-62
2021/04/16 01:33:20;;;;;;;2.90;1.55;;;;;;;;;;5116732;28;20191;-62
2021/04/16 01:35:46;;;;;;;1.70;1.60;;;;;;;;;;5116945;28;20224;-61
2021/04/16 01:38:13;;;;;;;3.92;1.70;;;;;;;;;;5118452;28;20294;-62
2021/04/16 01:40:40;;;;;;;1.63;1.50;;;;;;;;;;5116508;28;20248;-62
2021/04/16 01:43:15;;;;;;;4.43;1.67;;;;;;;;;;5118898;28;20203;-62
2021/04/16 01:45:42;;;;;;;1.50;1.40;;;;;;;;;;5118855;28;20233;-61
2021/04/16 01:48:09;;;;;;;9.15;1.67;;;;;;;;;;5119609;27;20222;-61
2021/04/16 01:50:36;;;;;;;3.85;1.80;;;;;;;;;;5123487;28;20203;-62
2021/04/16 01:53:02;;;;;;;1.75;1.60;;;;;;;;;;5122950;28;20222;-62
2021/04/16 01:55:29;;;;;;;2.10;1.67;;;;;;;;;;5119099;28;20224;-62
2021/04/16 01:57:56;;;;;;;2.13;1.23;;;;;;;;;;5120393;28;20199;-62
2021/04/16 02:00:26;;;;;;;3.47;1.70;;;;;;;;;;5132669;28;20211;-63
2021/04/16 02:02:52;;;;;;;3.17;1.95;;;;;;;;;;5120109;28;20208;-62
2021/04/16 02:05:19;;;;;;;4.88;2.70;;;;;;;;;;5119177;28;20228;-63
2021/04/16 02:07:46;;;;;;;2.70;2.35;;;;;;;;;;5123067;28;20230;-63
2021/04/16 02:10:13;;;;;;;3.05;2.72;;;;;;;;;;5126872;28;20207;-63
2021/04/16 02:12:40;;;;;;;2.58;2.38;;;;;;;;;;5122457;28;20663;-61
2021/04/16 02:15:08;;;;;;;5.05;2.60;;;;;;;;;;5125474;28;20220;-62
2021/04/16 02:17:37;;;;;;;5.25;2.53;;;;;;;;;;5127013;28;20215;-62
2021/04/16 02:20:06;;;;;;;3.17;2.10;;;;;;;;;;5128848;28;20221;-62
2021/04/16 02:22:32;;;;;;;3.20;2.47;;;;;;;;;;5129751;28;20215;-61
2021/04/16 02:24:59;;;;;;;3.10;2.20;;;;;;;;;;5126939;28;20226;-61
2021/04/16 02:27:27;;;;;;;8.50;2.60;;;;;;;;;;5130208;28;20225;-62
2021/04/16 02:29:54;;;;;;;2.85;2.55;;;;;;;;;;5134356;27;20231;-62
2021/04/16 02:32:21;;;;;;;5.80;2.75;;;;;;;;;;5134452;28;20207;-62
2021/04/16 02:34:48;;;;;;;3.30;2.17;;;;;;;;;;5133074;28;20219;-62
2021/04/16 02:37:16;;;;;;;3.75;2.45;;;;;;;;;;5129237;28;20199;-61
2021/04/16 02:39:43;;;;;;;2.60;2.40;;;;;;;;;;5124267;28;20199;-61
2021/04/16 02:42:11;;;;;;;2.95;2.15;;;;;;;;;;5117851;28;20241;-61
2021/04/16 02:44:38;;;;;;;5.72;2.42;;;;;;;;;;5116864;28;20710;-61
2021/04/16 02:47:05;;;;;;;4.88;1.98;;;;;;;;;;5115075;28;20221;-61
2021/04/16 02:49:32;;;;;;;3.30;2.50;;;;;;;;;;5115567;28;20695;-61
2021/04/16 02:52:00;;;;;;;3.08;2.50;;;;;;;;;;5116262;28;20667;-62
2021/04/16 02:54:27;;;;;;;5.07;2.70;;;;;;;;;;5116472;28;20236;-62
2021/04/16 02:56:55;;;;;;;2.90;2.30;;;;;;;;;;5115590;28;20208;-62
2021/04/16 02:59:21;;;;;;;3.33;2.40;;;;;;;;;;5115615;28;20196;-62
2021/04/16 03:01:48;;;;;;;3.13;2.40;;;;;;;;;;5115323;28;20620;-61
2021/04/16 03:04:15;;;;;;;4.18;2.53;;;;;;;;;;5115455;28;20570;-61
2021/04/16 03:06:42;;;;;;;5.63;3.15;;;;;;;;;;5114940;28;20595;-62
2021/04/16 03:09:10;;;;;;;3.13;2.67;;;;;;;;;;5114903;28;20760;-61
2021/04/16 03:11:36;;;;;;;4.00;2.55;;;;;;;;;;5114794;28;20573;-61
2021/04/16 03:14:03;;;;;;;3.38;2.47;;;;;;;;;;5115015;28;20211;-62
2021/04/16 03:16:31;;;;;;;3.63;2.58;;;;;;;;;;5114567;28;20711;-63
2021/04/16 03:18:58;;;;;;;4.13;2.22;;;;;;;;;;5114716;27;20203;-62
2021/04/16 03:21:26;;;;;;;2.63;2.17;;;;;;;;;;5114921;28;20251;-63
2021/04/16 03:23:53;;;;;;;3.30;2.63;;;;;;;;;;5114798;28;20208;-62
2021/04/16 03:26:21;;;;;;;2.60;2.40;;;;;;;;;;5114782;28;20226;-62
2021/04/16 03:28:52;;;;;;;4.38;2.75;;;;;;;;;;5114726;28;20351;-62
2021/04/16 03:31:19;;;;;;;2.50;2.30;;;;;;;;;;5114558;28;20749;-62
2021/04/16 03:33:45;;;;;;;3.30;2.55;;;;;;;;;;5114381;28;20203;-62
2021/04/16 03:36:12;;;;;;;3.38;2.83;;;;;;;;;;5114792;28;20219;-63
2021/04/16 03:38:39;;;;;;;3.53;2.97;;;;;;;;;;5114843;28;20240;-61
2021/04/16 03:41:06;;;;;;;3.97;2.75;;;;;;;;;;5114743;28;20207;-61
2021/04/16 03:43:33;;;;;;;5.43;2.88;;;;;;;;;;5114844;28;20219;-60
2021/04/16 03:46:00;;;;;;;4.60;3.10;;;;;;;;;;5114640;28;20280;-61
2021/04/16 03:48:27;;;;;;;4.28;2.67;;;;;;;;;;5114394;28;20223;-62
2021/04/16 03:50:54;;;;;;;3.85;3.05;;;;;;;;;;5114420;28;20199;-61
2021/04/16 03:53:20;;;;;;;4.80;2.92;;;;;;;;;;5114476;28;20196;-62
2021/04/16 03:55:47;;;;;;;5.68;3.15;;;;;;;;;;5114426;28;20215;-61
2021/04/16 03:58:14;;;;;;;3.08;2.63;;;;;;;;;;5114061;28;20196;-62
2021/04/16 04:00:42;;;;;;;3.03;2.70;;;;;;;;;;5114165;28;20605;-61
2021/04/16 04:03:09;;;;;;;3.20;2.90;;;;;;;;;;5118324;28;20202;-61
2021/04/16 04:07:59;;;;;;;4.55;2.80;;;;;;;;;;5112130;27;20609;-61
2021/04/16 04:10:28;;;;;;;3.22;2.80;;;;;;;;;;5111372;28;20682;-62
2021/04/16 04:12:54;;;;;;;4.55;3.05;;;;;;;;;;5111301;28;20203;-61
2021/04/16 04:15:22;;;;;;;3.92;3.40;;;;;;;;;;5111972;28;20235;-63
2021/04/16 04:17:48;;;;;;;3.67;3.28;;;;;;;;;;5111339;28;20575;-61
2021/04/16 04:20:16;;;;;;;3.67;2.78;;;;;;;;;;5111670;28;20202;-60
2021/04/16 04:22:43;;;;;;;3.70;2.75;;;;;;;;;;5110994;28;20199;-62
2021/04/16 04:25:11;;;;;;;4.05;3.10;;;;;;;;;;5111093;28;20219;-62
2021/04/16 04:27:38;;;;;;;4.07;3.00;;;;;;;;;;5111855;28;20215;-62
2021/04/16 04:30:06;;;;;;;4.43;2.80;;;;;;;;;;5111419;28;20253;-61
2021/04/16 04:32:33;;;;;;;7.05;2.70;;;;;;;;;;5111132;28;20571;-61
2021/04/16 04:35:00;;;;;;;4.32;2.55;;;;;;;;;;5111283;28;20223;-62
2021/04/16 04:37:27;;;;;;;10.27;3.55;;;;;;;;;;5111692;28;20211;-62
2021/04/16 04:39:53;;;;;;;4.15;3.33;;;;;;;;;;5110759;28;20211;-62
2021/04/16 04:42:21;;;;;;;3.50;2.97;;;;;;;;;;5111150;28;20203;-62
2021/04/16 04:44:48;;;;;;;4.82;2.80;;;;;;;;;;5110938;28;20738;-63
2021/04/16 04:47:15;;;;;;;3.72;3.42;;;;;;;;;;5110754;28;20218;-62
2021/04/16 04:49:41;;;;;;;3.25;2.95;;;;;;;;;;5110806;28;20210;-62
2021/04/16 04:52:10;;;;;;;4.70;2.90;;;;;;;;;;5111094;28;20200;-62
2021/04/16 04:54:37;;;;;;;6.95;3.40;;;;;;;;;;5112086;28;20223;-60
2021/04/16 04:57:04;;;;;;;2.70;2.50;;;;;;;;;;5111061;28;20199;-61
2021/04/16 04:59:31;;;;;;;3.97;3.40;;;;;;;;;;5110885;28;20196;-62
2021/04/16 05:01:58;;;;;;;3.80;3.28;;;;;;;;;;5112874;28;20614;-62
2021/04/16 05:04:25;;;;;;;7.32;2.75;;;;;;;;;;5110791;28;20204;-62
2021/04/16 05:06:51;;;;;;;4.65;3.33;;;;;;;;;;5110789;28;20227;-61
2021/04/16 05:09:18;;;;;;;4.05;2.85;;;;;;;;;;5111147;28;20203;-62
2021/04/16 05:11:45;;;;;;;3.80;3.50;;;;;;;;;;5111243;28;20207;-62
2021/04/16 05:14:11;;;;;;;4.00;3.05;;;;;;;;;;5111397;28;20204;-61
2021/04/16 05:16:39;;;;;;;3.72;2.90;;;;;;;;;;5110096;28;20711;-62
2021/04/16 05:19:06;;;;;;;5.22;3.30;;;;;;;;;;5098292;28;20208;-62
2021/04/16 05:21:36;;;;;;;3.58;3.28;;;;;;;;;;5096840;28;20211;-62
2021/04/16 05:24:03;;;;;;;3.30;2.88;;;;;;;;;;5096873;28;20207;-61
2021/04/16 05:26:30;;;;;;;5.20;3.08;;;;;;;;;;5096472;28;20695;-61
2021/04/16 05:28:56;;;;;;;4.68;2.92;;;;;;;;;;5097017;28;20208;-61
2021/04/16 05:31:23;;;;;;;3.50;3.20;;;;;;;;;;5096405;28;20668;-61
2021/04/16 05:33:51;;;;;;;4.65;3.25;;;;;;;;;;5097124;28;20277;-61
2021/04/16 05:36:18;;;;;;;5.72;3.47;;;;;;;;;;5095894;28;20296;-61
2021/04/16 05:38:44;;;;;;;4.25;3.42;;;;;;;;;;5095828;28;20687;-62
2021/04/16 05:41:11;;;;;;;5.13;3.50;;;;;;;;;;5095936;28;20851;-62
2021/04/16 05:43:38;;;;;;;6.30;3.20;;;;;;;;;;5096072;28;20592;-60
2021/04/16 05:46:05;;;;;;;2.85;2.50;;;;;;;;;;5095976;28;20224;-62
2021/04/16 05:48:32;;;;;;;3.20;2.90;;;;;;;;;;5096350;28;20587;-61
2021/04/16 05:51:00;;;;;;;7.22;3.03;;;;;;;;;;5096631;28;20208;-61
2021/04/16 05:53:26;;;;;;;5.05;3.10;;;;;;;;;;5098841;28;20257;-62
2021/04/16 05:55:53;;;;;;;3.45;2.70;;;;;;;;;;5097644;28;20227;-63
2021/04/16 05:58:20;;;;;;;4.00;2.90;;;;;;;;;;5096230;28;20227;-62
2021/04/16 06:00:47;;;;;;;6.05;3.33;;;;;;;;;;5095710;28;20615;-62
2021/04/16 06:03:14;;;;;;;3.70;3.40;;;;;;;;;;5096132;28;20197;-61
2021/04/16 06:05:40;;;;;;;7.57;3.50;;;;;;;;;;5095460;28;20711;-61
2021/04/16 06:08:08;;;;;;;5.70;3.15;;;;;;;;;;5095741;28;20184;-61
2021/04/16 06:10:35;;;;;;;3.92;2.40;;;;;;;;;;5095754;28;20269;-60
2021/04/16 06:13:01;;;;;;;4.30;2.83;;;;;;;;;;5095167;28;20801;-62
2021/04/16 06:15:29;;;;;;;4.85;3.35;;;;;;;;;;5095040;28;20216;-62
2021/04/16 06:17:56;;;;;;;5.32;4.05;;;;;;;;;;5095436;28;20222;-61
2021/04/16 06:20:24;;;;;;;3.55;2.72;;;;;;;;;;5095315;28;20196;-59
2021/04/16 06:22:51;;;;;;;3.97;3.25;;;;;;;;;;5095742;28;20223;-61
2021/04/16 06:25:20;;;;;;;4.38;3.72;;;;;;;;;;5094934;28;20216;-62
2021/04/16 06:27:47;;;;;;;3.88;2.88;;;;;;;;;;5095031;28;20216;-62
2021/04/16 06:30:16;;;;;;;6.22;4.25;;;;;;;;;;5094321;28;20204;-62
2021/04/16 06:32:42;;;;;;;4.43;3.75;;;;;;;;;;5095789;28;20200;-61
2021/04/16 06:35:12;;;;;;;4.45;3.28;;;;;;;;;;5098159;28;20224;-62
2021/04/16 06:37:39;;;;;;;4.20;3.80;;;;;;;;;;5095264;28;20200;-60
2021/04/16 06:40:06;;;;;;;3.70;3.28;;;;;;;;;;5095401;28;20200;-62
2021/04/16 06:42:35;;;;;;;5.43;4.38;;;;;;;;;;5094923;28;20204;-62
2021/04/16 06:45:03;;;;;;;6.30;3.20;;;;;;;;;;5094815;28;20227;-62
2021/04/16 06:47:33;;;;;;;4.95;3.13;;;;;;;;;;5094427;28;20219;-61
2021/04/16 06:50:01;;;;;;;5.10;3.80;;;;;;;;;;5094278;28;20253;-61
2021/04/16 06:52:30;;;;;;;3.30;3.00;;;;;;;;;;5094915;28;20203;-62
2021/04/16 06:54:58;;;;;;;5.15;2.92;;;;;;;;;;5094145;28;20224;-62
2021/04/16 06:57:29;;;;;;;4.75;3.63;;;;;;;;;;5094460;28;20196;-62
2021/04/16 07:00:02;;;;;;;6.15;3.50;;;;;;;;;;5094413;28;20607;-62
2021/04/16 07:02:34;;;;;;;6.13;3.83;;;;;;;;;;5094531;28;20559;-62
2021/04/16 07:05:01;;;;;;;4.10;3.05;;;;;;;;;;5094521;28;20239;-62
2021/04/16 07:07:30;;;;;;;8.43;3.35;;;;;;;;;;5094251;28;20219;-62
2021/04/16 07:10:01;;;;;;;4.18;2.90;;;;;;;;;;5094464;28;20322;-62
2021/04/16 07:12:28;;;;;;;3.95;3.55;;;;;;;;;;5094123;28;20325;-62
2021/04/16 07:14:56;;;;;;;5.20;3.35;;;;;;;;;;5094334;28;20224;-62
2021/04/16 07:17:28;;;;;;;6.60;3.13;;;;;;;;;;5094076;28;20568;-61
2021/04/16 07:19:54;;;;;;;3.95;3.15;;;;;;;;;;5094244;28;20544;-62
2021/04/16 07:22:22;;;;;;;5.18;3.25;;;;;;;;;;5093876;28;20200;-62
2021/04/16 07:24:49;;;;;;;5.82;3.55;;;;;;;;;;5094553;28;20254;-61
2021/04/16 07:27:21;;;;;;;4.57;3.38;;;;;;;;;;5100312;28;20246;-61
2021/04/16 07:29:53;;;;;;;3.10;2.80;;;;;;;;;;5103298;28;20277;-60
2021/04/16 07:32:37;;;;;;;4.70;3.33;;;;;;;;;;5102160;28;20218;-62
2021/04/16 07:35:19;;;;;;;5.10;2.75;;;;;;;;;;5101724;28;20699;-61
2021/04/16 07:37:47;;;;;;;4.70;3.05;;;;;;;;;;5103499;28;20261;-61
2021/04/16 07:40:23;;;;;;;3.53;2.75;;;;;;;;;;5102934;28;20264;-60
2021/04/16 07:42:50;;;;;;;3.53;1.95;;;;;;;;;;5103624;28;20283;-61
2021/04/16 07:45:19;;;;;;;3.47;2.30;;;;;;;;;;5101112;28;20256;-61
2021/04/16 07:47:47;;;;;;;5.40;2.60;;;;;;;;;;5100352;28;20223;-62
2021/04/16 07:50:26;;;;;;;4.00;2.75;;;;;;;;;;5101607;28;20204;-61
2021/04/16 07:52:54;;;;;;;4.93;2.45;;;;;;;;;;5102072;28;20191;-61
2021/04/16 07:55:23;;;;;;;2.15;1.95;;;;;;;;;;5101765;28;20223;-61
2021/04/16 07:58:01;;;;;;;2.92;2.60;;;;;;;;;;5100393;28;20193;-61
2021/04/16 08:00:29;;;;;;;3.10;2.78;;;;;;;;;;5101372;28;20200;-61
2021/04/16 08:03:04;;;;;;;2.08;1.88;;;;;;;;;;5101340;28;20631;-61
2021/04/16 08:05:32;;;;;;;5.32;2.53;;;;;;;;;;5100377;28;20223;-61
2021/04/16 08:08:12;;;;;;;4.22;2.22;;;;;;;;;;5101902;28;20220;-61
2021/04/16 08:10:39;;;;;;;4.32;2.20;;;;;;;;;;5102333;28;20197;-61
2021/04/16 08:13:07;;;;;;;2.30;1.80;;;;;;;;;;5099725;28;20204;-62
2021/04/16 08:15:33;;;;;;;2.45;1.95;;;;;;;;;;5095515;28;20236;-60
2021/04/16 08:18:08;;;;;;;2.70;1.63;;;;;;;;;;5097791;28;20192;-62
2021/04/16 08:20:37;;;;;;;3.95;2.10;;;;;;;;;;5095082;28;20184;-61
2021/04/16 08:23:05;;;;;;;2.38;1.48;;;;;;;;;;5095593;28;20256;-61
2021/04/16 08:25:36;;;;;;;2.47;1.77;;;;;;;;;;5097201;28;20231;-62
2021/04/16 08:28:04;;;;;;;2.55;1.50;;;;;;;;;;5095752;28;20648;-61
2021/04/16 08:30:38;;;;;;;1.63;1.50;;;;;;;;;;5093192;28;20199;-62
2021/04/16 08:33:06;;;;;;;3.78;1.60;;;;;;;;;;5093272;28;20184;-61
2021/04/16 08:35:38;;;;;;;2.67;1.60;;;;;;;;;;5093200;28;20224;-60
2021/04/16 08:38:06;;;;;;;3.13;1.90;;;;;;;;;;5093548;28;20211;-61
2021/04/16 08:40:35;;;;;;;2.47;1.58;;;;;;;;;;5092990;28;20265;-61
2021/04/16 08:43:02;;;;;;;5.53;1.60;;;;;;;;;;5093134;28;20208;-61
2021/04/16 08:45:33;;;;;;;2.10;1.90;;;;;;;;;;5093130;28;20776;-62
2021/04/16 08:48:01;;;;;;;3.88;1.92;;;;;;;;;;5093102;28;20680;-62
2021/04/16 08:50:30;;;;;;;3.40;1.95;;;;;;;;;;5093705;28;20201;-62
2021/04/16 08:52:58;;;;;;;2.90;1.40;;;;;;;;;;5093964;28;20614;-62
2021/04/16 08:55:28;;;;;;;5.13;1.75;;;;;;;;;;5097419;28;20738;-61
2021/04/16 08:57:58;;;;;;;1.70;1.38;;;;;;;;;;5097890;28;20664;-61
2021/04/16 09:00:29;;;;;;;2.72;2.00;;;;;;;;;;5099842;28;20218;-62
2021/04/16 09:02:57;;;;;;;2.15;1.50;;;;;;;;;;5099285;28;20625;-61
2021/04/16 09:05:25;;;;;;;3.97;1.70;;;;;;;;;;5099751;28;20252;-62
2021/04/16 09:07:54;;;;;;;1.70;1.50;;;;;;;;;;5103201;28;20238;-62
2021/04/16 09:10:48;;;;;;;3.05;1.70;;;;;;;;;;5104043;28;20442;-62
2021/04/16 09:13:30;;;;;;;3.28;1.70;;;;;;;;;;5101044;28;20229;-61
2021/04/16 09:16:17;;;;;;;1.80;1.70;;;;;;;;;;5100619;28;20247;-61
2021/04/16 09:18:45;;;;;;;3.50;2.20;;;;;;;;;;5099864;28;20923;-60
2021/04/16 09:21:18;;;;;;;2.33;2.10;;;;;;;;;;5100306;28;20445;-61
2021/04/16 09:23:55;;;;;;;3.70;2.40;;;;;;;;;;5101175;28;20537;-60
2021/04/16 09:26:39;;;;;;;2.65;1.70;;;;;;;;;;5100237;28;20544;-61
2021/04/16 09:29:06;;;;;;;2.53;2.30;;;;;;;;;;5099833;28;20214;-61
2021/04/16 09:31:50;;;;;;;1.80;1.50;;;;;;;;;;5100329;28;20453;-61
2021/04/16 09:34:19;;;;;;;4.90;2.53;;;;;;;;;;5099843;28;20442;-60
2021/04/16 09:36:47;;;;;;;4.13;2.70;;;;;;;;;;5099638;28;20466;-61
2021/04/16 09:39:16;;;;;;;3.00;2.00;;;;;;;;;;5098788;28;20438;-63
2021/04/16 09:41:43;;;;;;;1.97;1.43;;;;;;;;;;5100561;28;20473;-61
2021/04/16 09:44:37;;;;;;;2.40;1.70;;;;;;;;;;5105058;28;20514;-61
2021/04/16 09:47:05;;;;;;;3.83;1.90;;;;;;;;;;5072530;28;20888;-61
2021/04/16 09:49:36;;;;;;;3.83;1.70;;;;;;;;;;5103582;28;20542;-63
2021/04/16 09:52:18;;;;;;;2.50;1.47;;;;;;;;;;5104667;28;20454;-61
2021/04/16 09:54:44;;;;;;;4.55;4.15;;;;;;;;;;5103716;28;20537;-61
2021/04/16 09:57:29;;;;;;;2.45;2.25;;;;;;;;;;5103388;28;20203;-61
2021/04/16 09:59:56;;;;;;;2.77;2.10;;;;;;;;;;5103974;28;20200;-61
2021/04/16 10:02:33;;;;;;;3.53;2.03;;;;;;;;;;5103251;28;20447;-61
2021/04/16 10:05:02;;;;;;;2.10;1.53;;;;;;;;;;5103436;28;20224;-61
2021/04/16 10:07:34;;;;;;;2.97;1.53;;;;;;;;;;5106191;28;20553;-61
2021/04/16 10:10:02;;;;;;;3.40;1.83;;;;;;;;;;5109550;28;20442;-62
2021/04/16 10:12:30;;;;;;;2.90;1.63;;;;;;;;;;5110130;28;20917;-61
2021/04/16 10:14:57;;;;;;;2.03;1.73;;;;;;;;;;5107999;28;20458;-62
2021/04/16 10:17:25;;;;;;;4.03;2.03;;;;;;;;;;5108155;28;20441;-62
2021/04/16 10:19:53;;;;;;;3.10;1.80;;;;;;;;;;5102667;28;20933;-62
2021/04/16 10:22:24;;;;;;;2.33;1.57;;;;;;;;;;5100867;28;20452;-62
2021/04/16 12:39:50;;;;;;;2.70;1.80;;;;;;;;;;5097328;28;20425;-61
2021/04/16 12:42:17;;;;;;;2.70;1.90;;;;;;;;;;5096767;28;20452;-62
2021/04/16 12:44:47;;;;;;;2.30;2.07;;;;;;;;;;5097201;28;20467;-62
2021/04/16 12:47:15;;;;;;;2.53;2.00;;;;;;;;;;5096725;28;20548;-62
2021/04/16 12:49:42;;;;;;;2.30;1.60;;;;;;;;;;5097599;28;20443;-61
2021/04/16 12:52:10;;;;;;;3.30;1.50;;;;;;;;;;5096812;28;20996;-61
2021/04/16 12:54:38;;;;;;;2.20;2.00;;;;;;;;;;5096727;28;20814;-62
2021/04/16 12:57:06;;;;;;;2.77;1.83;;;;;;;;;;5097028;28;20440;-62
2021/04/16 12:59:33;;;;;;;1.87;1.73;;;;;;;;;;5097174;28;20442;-62
2021/04/16 13:02:00;;;;;;;2.27;1.50;;;;;;;;;;5096798;28;20465;-63
2021/04/16 13:04:26;;;;;;;3.50;1.80;;;;;;;;;;5096913;28;20451;-62
2021/04/16 13:06:54;;;;;;;2.43;1.80;;;;;;;;;;5096597;28;20487;-62
2021/04/16 13:09:22;;;;;;;2.30;1.87;;;;;;;;;;5096928;28;20442;-61
2021/04/16 13:11:49;;;;;;;3.00;1.90;;;;;;;;;;5096723;28;20939;-61
2021/04/16 13:14:16;;;;;;;3.23;2.23;;;;;;;;;;5096709;28;20430;-62
2021/04/16 13:16:42;;;;;;;2.10;1.90;;;;;;;;;;5096849;28;20447;-62
2021/04/16 13:19:12;;;;;;;3.40;2.50;;;;;;;;;;5096541;28;20478;-62
2021/04/16 13:21:40;;;;;;;1.90;1.80;;;;;;;;;;5097457;28;20831;-60
2021/04/16 13:24:07;;;;;;;1.97;1.60;;;;;;;;;;5096458;28;20450;-61
2021/04/16 13:26:35;;;;;;;3.93;2.30;;;;;;;;;;5096001;28;21024;-61
2021/04/16 13:29:02;;;;;;;2.70;2.10;;;;;;;;;;5097090;28;20441;-63
2021/04/16 13:31:31;;;;;;;2.43;2.00;;;;;;;;;;5096277;28;20440;-61
2021/04/16 13:33:57;;;;;;;3.27;2.10;;;;;;;;;;5095733;28;20450;-61
2021/04/16 13:36:25;;;;;;;2.67;2.30;;;;;;;;;;5095964;28;20957;-62
2021/04/16 13:38:53;;;;;;;1.67;1.57;;;;;;;;;;5095434;28;20446;-60
2021/04/16 13:41:20;;;;;;;3.27;2.43;;;;;;;;;;5096111;28;20448;-61
2021/04/16 13:43:49;;;;;;;2.10;1.90;;;;;;;;;;5095703;28;20504;-60
2021/04/16 13:46:18;;;;;;;2.40;1.97;;;;;;;;;;5095576;28;20849;-61
2021/04/16 13:48:45;;;;;;;2.63;1.80;;;;;;;;;;5095902;28;20997;-60
2021/04/16 13:51:12;;;;;;;2.63;2.00;;;;;;;;;;5096630;28;20439;-61
2021/04/16 13:53:38;;;;;;;3.20;2.30;;;;;;;;;;5096881;28;20450;-61
2021/04/16 13:56:06;;;;;;;2.80;1.97;;;;;;;;;;5096597;28;20464;-62
2021/04/16 13:58:32;;;;;;;2.60;2.20;;;;;;;;;;5096723;28;20443;-62
2021/04/16 14:01:00;;;;;;;2.10;1.80;;;;;;;;;;5096135;28;20445;-61
2021/04/16 14:03:28;;;;;;;2.03;1.73;;;;;;;;;;5095804;28;20504;-61
2021/04/16 14:05:56;;;;;;;2.30;1.80;;;;;;;;;;5095866;28;20540;-61
2021/04/16 14:08:25;;;;;;;4.27;2.30;;;;;;;;;;5096412;28;20914;-63
2021/04/16 14:10:52;;;;;;;2.30;1.90;;;;;;;;;;5096530;28;20447;-60
2021/04/16 14:13:18;;;;;;;3.60;1.90;;;;;;;;;;5098075;28;20946;-61
2021/04/16 14:15:45;;;;;;;3.00;2.03;;;;;;;;;;5097716;28;20466;-62
2021/04/16 14:18:18;;;;;;;3.13;1.70;;;;;;;;;;5097048;28;20434;-61
2021/04/16 14:20:44;;;;;;;1.87;1.10;;;;;;;;;;5097344;28;20442;-63
2021/04/16 14:23:14;;;;;;;2.20;1.60;;;;;;;;;;5096823;28;20891;-61
2021/04/16 14:25:41;;;;;;;2.80;1.37;;;;;;;;;;5099615;28;21071;-61
2021/04/16 14:28:09;;;;;;;2.47;1.20;;;;;;;;;;5101558;28;20902;-61
2021/04/16 14:30:37;;;;;;;1.70;1.40;;;;;;;;;;5101900;28;20456;-62
2021/04/16 14:33:05;;;;;;;1.67;1.10;;;;;;;;;;5098802;28;20436;-62
2021/04/16 14:35:33;;;;;;;1.83;1.53;;;;;;;;;;5097323;28;20458;-61
2021/04/16 14:38:02;;;;;;;1.63;1.00;;;;;;;;;;5096608;28;20789;-62
2021/04/16 14:40:29;;;;;;;1.40;1.30;;;;;;;;;;5096077;28;20473;-60
2021/04/16 14:42:56;;;;;;;1.73;1.20;;;;;;;;;;5095971;28;20440;-62
2021/04/16 14:45:24;;;;;;;1.87;1.23;;;;;;;;;;5095797;28;20472;-61
2021/04/16 14:47:51;;;;;;;2.03;1.40;;;;;;;;;;5095611;28;20485;-62
2021/04/16 14:50:18;;;;;;;2.57;1.23;;;;;;;;;;5095686;28;20451;-60
2021/04/16 14:52:45;;;;;;;3.10;1.67;;;;;;;;;;5094846;28;20782;-60
2021/04/16 14:55:17;;;;;;;3.10;1.37;;;;;;;;;;5094377;28;20462;-61
2021/04/16 14:57:44;;;;;;;3.37;1.20;;;;;;;;;;5094457;28;20499;-61
2021/04/16 15:00:12;;;;;;;2.50;1.30;;;;;;;;;;5094659;28;20438;-61
2021/04/16 15:02:39;;;;;;;1.33;1.10;;;;;;;;;;5093991;28;20956;-61
2021/04/16 15:05:07;;;;;;;2.13;1.40;;;;;;;;;;5093934;28;20476;-62
2021/04/16 15:07:37;;;;;;;3.10;1.53;;;;;;;;;;5093842;28;20484;-61
2021/04/16 15:10:07;;;;;;;1.27;1.17;;;;;;;;;;5093839;28;20426;-61
2021/04/16 15:12:35;;;;;;;1.70;1.23;;;;;;;;;;5094712;28;20449;-61
2021/04/16 15:15:03;;;;;;;1.87;1.40;;;;;;;;;;5094175;28;20459;-62
2021/04/16 15:17:30;;;;;;;2.93;1.60;;;;;;;;;;5094188;28;20453;-62
2021/04/16 15:19:58;;;;;;;1.77;1.10;;;;;;;;;;5094042;28;20441;-61
2021/04/16 15:22:25;;;;;;;2.33;1.20;;;;;;;;;;5094002;28;20564;-62
2021/04/16 15:24:53;;;;;;;4.13;2.70;;;;;;;;;;5094491;28;20467;-62
2021/04/16 15:27:21;;;;;;;2.50;1.33;;;;;;;;;;5093905;28;20478;-61
2021/04/16 15:29:51;;;;;;;2.33;1.50;;;;;;;;;;5094109;28;20451;-61
2021/04/16 15:32:19;;;;;;;2.00;1.00;;;;;;;;;;5094405;28;20448;-61
2021/04/16 15:47:59;;;;;;;1.40;0.83;;;;;;;;;;5093753;28;20462;-61
2021/04/16 15:50:27;;;;;;;1.77;1.00;;;;;;;;;;5094175;28;20442;-62
2021/04/16 15:52:54;;;;;;;2.30;1.13;;;;;;;;;;5095005;28;20507;-61
2021/04/16 15:55:20;;;;;;;1.50;0.90;;;;;;;;;;5094432;28;20462;-62
2021/04/16 15:57:48;;;;;;;1.27;1.10;;;;;;;;;;5093890;28;20439;-61
2021/04/16 16:00:18;;;;;;;1.80;1.10;;;;;;;;;;5093954;28;20457;-61
2021/04/16 16:02:45;;;;;;;2.37;1.20;;;;;;;;;;5094373;28;20443;-61
2021/04/16 16:05:12;;;;;;;1.60;1.13;;;;;;;;;;5093629;28;20980;-62
2021/04/16 16:07:39;;;;;;;1.60;1.13;;;;;;;;;;5093146;28;20486;-61
2021/04/16 16:10:07;;;;;;;3.47;1.63;;;;;;;;;;5093130;28;20814;-63
2021/04/16 16:12:35;;;;;;;1.20;1.00;;;;;;;;;;5093423;28;20500;-62
2021/04/16 16:15:05;;;;;;;2.20;1.20;;;;;;;;;;5093673;28;20463;-61
2021/04/16 16:17:35;;;;;;;1.70;0.93;;;;;;;;;;5093540;28;20861;-62
2021/04/16 16:20:02;;;;;;;4.57;2.13;;;;;;;;;;5093613;28;20972;-61
2021/04/16 16:22:28;;;;;;;1.93;1.30;;;;;;;;;;5100309;28;20442;-61
2021/04/16 16:24:55;;;;;;;2.43;1.37;;;;;;;;;;5096394;28;20516;-62
2021/04/16 16:27:23;;;;;;;4.93;2.90;;;;;;;;;;5094387;28;20473;-62
2021/04/16 16:29:51;;;;;;;3.03;1.27;;;;;;;;;;5094446;28;20446;-61
2021/04/16 16:32:20;;;;;;;1.60;1.10;;;;;;;;;;5094316;28;20455;-60
2021/04/16 16:34:47;;;;;;;6.30;2.07;;;;;;;;;;5093920;28;20481;-60
2021/04/16 16:37:16;;;;;;;3.63;2.00;;;;;;;;;;5093584;28;20468;-60
2021/04/16 16:39:43;;;;;;;3.80;2.30;;;;;;;;;;5093789;28;20541;-61
2021/04/16 16:42:11;;;;;;;3.60;2.90;;;;;;;;;;5094454;28;20943;-60
2021/04/16 16:44:38;;;;;;;2.50;2.03;;;;;;;;;;5093750;28;20519;-61
2021/04/16 16:47:06;;;;;;;1.47;1.00;;;;;;;;;;5094901;28;20482;-60
2021/04/16 16:49:34;;;;;;;2.10;1.30;;;;;;;;;;5095073;28;20438;-62
2021/04/16 16:52:01;;;;;;;2.57;2.37;;;;;;;;;;5095378;28;20453;-62
2021/04/16 16:54:29;;;;;;;2.90;1.20;;;;;;;;;;5095452;28;20449;-63
2021/04/16 16:56:56;;;;;;;4.90;3.10;;;;;;;;;;5095210;28;20497;-63
2021/04/16 16:59:26;;;;;;;4.83;1.50;;;;;;;;;;5095403;28;20450;-62
2021/04/16 17:01:53;;;;;;;1.50;1.33;;;;;;;;;;5098420;28;20557;-59
2021/04/16 17:04:20;;;;;;;3.53;1.10;;;;;;;;;;5104184;28;20468;-61
2021/04/16 17:06:48;;;;;;;1.83;1.17;;;;;;;;;;5103354;28;20463;-61
2021/04/16 17:09:14;;;;;;;11.40;5.10;;;;;;;;;;5104746;28;20439;-61
2021/04/16 17:11:42;;;;;;;2.70;1.53;;;;;;;;;;5104739;28;20442;-60
2021/04/16 17:14:11;;;;;;;2.30;1.40;;;;;;;;;;5105714;28;20438;-61
2021/04/16 17:16:37;;;;;;;2.37;1.57;;;;;;;;;;5105907;28;20534;-60
2021/04/16 17:19:04;;;;;;;2.97;1.10;;;;;;;;;;5104550;28;20431;-61
2021/04/16 17:21:31;;;;;;;1.80;1.10;;;;;;;;;;5103530;28;20200;-61